Terminal Aerodrome Forecast
Issued by NWS

Home | Current Version | Previous Version | Text Only | Print | Product List | Glossary Off
Versions: 1 2 3 4 5 6 7 8 9 10 11 12 13 14 15 16 17 18 19 20 21 22 23 24

000
FTUS43 KGRB 272200 AAC
TAFMTW
TAF AMD
KMTW 272205Z 2722/2818 03004KT P6SM SCT020 BKN030
     FM280300 VRB03KT P6SM BKN025 BKN150
     FM281200 19008KT P6SM OVC120=

USA.gov is the U.S. government's official web portal to all federal, state and local government web resources and services.